Time;durP1;ratioP1;P1;durP2;ratioP2;P2;SDS_P1;SDS_P2;PMS_P1;PMS_P2;Temp;Humidity;BMP_temperature;BMP_pressure;BME280_temperature;BME280_humidity;BME280_pressure;Samples;Min_cycle;Max_cycle;Signal;HPM_P1;HPM_P2
2022/05/06 00:02:05;;;;;;;20.90;8.30;;;;;;;13.02;72.12;102701.31;4973780;28;20038;-59
2022/05/06 00:04:31;;;;;;;18.52;8.90;;;;;;;13.05;72.02;102692.66;4978013;28;20070;-58
2022/05/06 00:06:56;;;;;;;17.58;8.80;;;;;;;12.99;72.88;102693.38;4969327;28;20161;-58
2022/05/06 00:09:23;;;;;;;18.75;8.98;;;;;;;12.99;73.06;102696.84;4970952;28;20053;-58
2022/05/06 00:11:48;;;;;;;17.45;8.52;;;;;;;12.99;72.89;102699.47;4975135;28;20397;-58
2022/05/06 00:14:14;;;;;;;16.58;8.25;;;;;;;13.06;72.93;102687.47;4968243;28;20319;-58
2022/05/06 00:16:39;;;;;;;51.03;9.07;;;;;;;12.91;72.71;102693.09;4989772;28;20031;-58
2022/05/06 00:19:05;;;;;;;17.38;8.80;;;;;;;12.86;73.40;102688.56;4959177;28;20086;-58
2022/05/06 00:21:30;;;;;;;18.42;7.97;;;;;;;12.84;73.42;102688.50;4966739;28;20752;-59
2022/05/06 00:23:56;;;;;;;23.20;8.00;;;;;;;12.84;73.32;102690.22;4972312;28;20034;-59
2022/05/06 00:26:26;;;;;;;19.40;8.05;;;;;;;12.81;73.53;102685.78;4973812;28;20114;-58
2022/05/06 00:28:51;;;;;;;38.17;8.48;;;;;;;12.79;73.38;102690.09;4978773;28;20129;-59
2022/05/06 00:31:17;;;;;;;15.90;7.65;;;;;;;12.76;73.25;102678.63;4969719;28;20111;-58
2022/05/06 00:33:43;;;;;;;120.43;9.80;;;;;;;12.71;73.65;102686.31;4970486;28;20645;-56
2022/05/06 00:36:08;;;;;;;35.17;8.93;;;;;;;12.68;74.00;102678.38;4973665;28;20484;-59
2022/05/06 00:38:33;;;;;;;53.88;9.88;;;;;;;12.72;73.70;102681.97;4976916;28;20046;-59
2022/05/06 00:40:59;;;;;;;42.83;10.18;;;;;;;12.73;74.25;102678.53;4952142;28;20406;-59
2022/05/06 00:43:30;;;;;;;23.33;9.98;;;;;;;12.84;74.09;102678.03;4972964;28;20030;-58
2022/05/06 00:45:56;;;;;;;47.13;8.93;;;;;;;12.84;73.73;102687.63;4973800;28;20464;-58
2022/05/06 00:48:26;;;;;;;28.42;9.23;;;;;;;12.86;73.61;102688.56;4970309;28;20038;-59
2022/05/06 00:50:54;;;;;;;24.33;9.55;;;;;;;12.85;73.78;102689.41;4968587;28;20096;-59
2022/05/06 00:53:19;;;;;;;18.02;8.77;;;;;;;12.90;73.57;102685.19;4967480;28;22560;-59
2022/05/06 00:55:45;;;;;;;21.95;8.82;;;;;;;12.93;73.21;102685.28;4972175;28;20050;-58
2022/05/06 00:58:11;;;;;;;40.10;9.35;;;;;;;12.88;72.97;102687.75;4977746;28;20081;-59
2022/05/06 01:00:36;;;;;;;31.27;9.68;;;;;;;12.78;73.48;102684.78;4973654;28;20502;-59
2022/05/06 01:03:02;;;;;;;37.28;8.00;;;;;;;12.67;73.37;102678.31;4959604;28;20354;-60
2022/05/06 01:05:28;;;;;;;44.78;8.35;;;;;;;12.55;73.49;102682.31;4979560;28;20046;-59
2022/05/06 01:07:53;;;;;;;17.55;8.13;;;;;;;12.54;73.94;102677.03;4977133;28;20107;-59
2022/05/06 01:10:21;;;;;;;85.07;8.60;;;;;;;12.46;73.79;102679.38;4972139;28;20513;-59
2022/05/06 01:12:47;;;;;;;19.45;8.35;;;;;;;12.45;74.12;102684.53;4969398;28;20705;-60
2022/05/06 01:15:21;;;;;;;16.85;7.70;;;;;;;12.53;73.86;102676.13;4955486;28;20674;-58
2022/05/06 01:17:47;;;;;;;37.67;8.27;;;;;;;12.57;73.60;102682.34;4974788;28;20045;-59
2022/05/06 01:20:17;;;;;;;14.68;7.75;;;;;;;12.62;73.45;102678.19;4963622;28;20054;-59
2022/05/06 01:23:00;;;;;;;17.77;8.57;;;;;;;12.55;73.99;102689.25;4964277;28;20328;-59
2022/05/06 01:25:27;;;;;;;20.33;8.27;;;;;;;12.60;73.76;102682.47;4977343;28;20050;-60
2022/05/06 01:28:02;;;;;;;51.13;8.75;;;;;;;12.45;73.54;102690.66;4964962;28;20049;-58
2022/05/06 01:30:31;;;;;;;45.45;9.07;;;;;;;12.41;73.87;102682.66;4964420;28;20038;-58
2022/05/06 01:32:59;;;;;;;49.72;9.73;;;;;;;12.41;74.36;102687.88;4998522;28;20506;-58
2022/05/06 01:35:26;;;;;;;28.30;9.40;;;;;;;12.45;74.44;102682.81;4969913;28;20578;-59
2022/05/06 01:37:54;;;;;;;20.33;9.18;;;;;;;12.55;74.39;102684.94;4972647;28;20560;-60
2022/05/06 01:40:24;;;;;;;27.90;10.50;;;;;;;12.60;74.30;102682.47;4972424;28;20042;-58
2022/05/06 01:42:54;;;;;;;34.33;11.02;;;;;;;12.57;74.35;102678.00;4972745;28;20573;-58
2022/05/06 01:45:22;;;;;;;27.65;11.63;;;;;;;12.59;74.65;102675.44;4965751;28;20050;-60
2022/05/06 01:47:51;;;;;;;25.60;11.02;;;;;;;12.68;74.34;102683.63;4974326;28;20177;-60
2022/05/06 01:50:19;;;;;;;25.92;11.32;;;;;;;12.76;73.83;102683.84;4979233;28;20057;-59
2022/05/06 01:52:50;;;;;;;33.08;12.20;;;;;;;12.74;73.89;102680.31;4976566;28;20230;-59
2022/05/06 01:55:16;;;;;;;42.72;11.98;;;;;;;12.67;74.20;102681.84;4966520;28;20060;-59
2022/05/06 01:57:42;;;;;;;132.90;12.52;;;;;;;12.53;74.07;102683.97;4976216;28;20613;-59
2022/05/06 02:00:09;;;;;;;107.80;12.70;;;;;;;12.51;74.29;102683.03;4980888;28;20045;-59
2022/05/06 02:02:34;;;;;;;96.03;12.48;;;;;;;12.52;74.82;102682.19;4980797;28;20053;-59
2022/05/06 02:05:18;;;;;;;106.05;12.45;;;;;;;12.53;74.61;102681.34;4973056;28;20294;-60
2022/05/06 02:07:48;;;;;;;56.05;13.70;;;;;;;12.56;75.01;102678.81;4974599;28;20538;-59
2022/05/06 02:10:15;;;;;;;58.60;13.85;;;;;;;12.55;75.27;102679.69;4971144;28;20510;-59
2022/05/06 02:12:41;;;;;;;48.08;14.57;;;;;;;12.60;75.57;102680.72;4976203;28;20116;-59
2022/05/06 02:15:08;;;;;;;45.40;14.68;;;;;;;12.68;75.73;102685.34;4976923;28;20666;-59
2022/05/06 02:17:34;;;;;;;48.45;14.65;;;;;;;12.72;75.54;102685.47;4981396;28;20050;-58
2022/05/06 02:19:59;;;;;;;60.97;15.27;;;;;;;12.76;75.32;102681.22;4975032;28;20104;-58
2022/05/06 02:22:29;;;;;;;52.22;14.75;;;;;;;12.79;75.06;102679.63;4978220;28;20053;-59
2022/05/06 02:24:55;;;;;;;45.85;15.38;;;;;;;12.81;75.18;102692.72;4968355;28;20049;-58
2022/05/06 02:27:21;;;;;;;46.78;15.73;;;;;;;12.90;75.05;102691.31;4970350;28;20566;-59
2022/05/06 02:35:34;;;;;;;45.85;15.07;;;;;;;12.91;75.21;102689.59;4953438;28;20045;-60
2022/05/06 02:38:00;;;;;;;40.50;14.73;;;;;;;12.91;75.27;102684.38;4929583;28;20066;-60
2022/05/06 02:40:26;;;;;;;38.47;14.63;;;;;;;12.86;74.85;102688.56;4947056;28;20426;-58
2022/05/06 02:42:51;;;;;;;32.78;13.07;;;;;;;12.87;74.74;102691.22;4977244;28;21485;-57
2022/05/06 02:45:17;;;;;;;33.90;13.40;;;;;;;12.91;74.67;102703.59;4971228;28;20045;-57
2022/05/06 02:47:42;;;;;;;36.05;12.88;;;;;;;12.92;74.32;102696.63;4973212;28;20126;-57
2022/05/06 02:50:08;;;;;;;52.47;13.05;;;;;;;12.76;74.34;102696.94;4971096;28;20121;-58
2022/05/06 02:52:33;;;;;;;34.88;12.57;;;;;;;12.73;74.44;102697.75;4961720;28;20046;-58
2022/05/06 02:54:59;;;;;;;32.20;12.25;;;;;;;12.73;74.25;102694.22;4968660;28;20069;-61
2022/05/06 02:57:24;;;;;;;38.10;12.40;;;;;;;12.70;74.39;102697.63;4978453;28;20064;-58
2022/05/06 02:59:49;;;;;;;25.98;11.88;;;;;;;12.68;74.53;102693.19;4977044;28;20423;-58
2022/05/06 03:02:15;;;;;;;32.55;12.63;;;;;;;12.66;74.49;102692.25;4966195;28;20048;-58
2022/05/06 03:04:41;;;;;;;28.60;12.32;;;;;;;12.68;74.70;102688.84;4973665;28;20423;-59
2022/05/06 03:07:08;;;;;;;82.72;12.00;;;;;;;12.59;74.29;102685.91;4970790;28;20050;-59
2022/05/06 03:09:34;;;;;;;104.95;12.65;;;;;;;12.44;74.38;102688.88;4978703;28;20749;-58
2022/05/06 03:11:59;;;;;;;85.70;12.15;;;;;;;12.38;74.69;102678.19;4982412;28;20125;-59
2022/05/06 03:14:25;;;;;;;53.30;12.52;;;;;;;12.43;74.93;102675.78;4976652;28;20038;-60
2022/05/06 03:16:50;;;;;;;43.85;12.43;;;;;;;12.41;74.88;102686.16;4967257;28;20034;-58
2022/05/06 03:19:15;;;;;;;31.33;12.30;;;;;;;12.51;74.84;102680.41;4968511;28;20237;-59
2022/05/06 03:21:41;;;;;;;26.13;11.75;;;;;;;12.54;74.65;102680.53;4975372;28;20052;-58
2022/05/06 03:24:07;;;;;;;23.20;11.00;;;;;;;12.60;74.42;102679.84;4971422;28;20042;-59
2022/05/06 03:26:33;;;;;;;23.60;10.77;;;;;;;12.67;73.94;102687.06;4981146;28;20038;-58
2022/05/06 03:28:58;;;;;;;23.85;10.48;;;;;;;12.60;74.26;102685.06;4965617;28;20323;-61
2022/05/06 03:31:27;;;;;;;31.38;11.65;;;;;;;12.58;74.38;102685.00;4965742;28;20041;-58
2022/05/06 03:33:54;;;;;;;26.08;11.32;;;;;;;12.66;74.14;102687.00;4972638;28;20164;-60
2022/05/06 03:36:20;;;;;;;23.30;11.05;;;;;;;12.76;73.69;102683.84;4980190;28;20117;-59
2022/05/06 03:38:46;;;;;;;29.75;12.02;;;;;;;12.61;73.75;102673.78;4975726;28;20614;-59
2022/05/06 03:41:11;;;;;;;40.15;12.40;;;;;;;12.59;74.27;102676.34;4965850;28;20049;-59
2022/05/06 03:43:36;;;;;;;23.00;11.27;;;;;;;12.61;74.00;102676.41;4976741;28;20590;-59
2022/05/06 03:46:02;;;;;;;24.33;11.20;;;;;;;12.72;73.55;102679.34;4985155;28;20041;-60
2022/05/06 03:48:27;;;;;;;24.83;10.40;;;;;;;12.58;73.80;102679.78;4978041;28;20128;-59
2022/05/06 03:53:38;;;;;;;25.42;10.38;;;;;;;12.57;73.52;102671.88;4970130;28;20401;-58
2022/05/06 03:56:05;;;;;;;30.92;10.82;;;;;;;12.44;73.75;102667.94;4975414;28;20043;-60
2022/05/06 03:58:31;;;;;;;23.48;10.90;;;;;;;12.48;74.14;102669.84;4973441;28;20497;-59
2022/05/06 04:00:57;;;;;;;23.67;11.20;;;;;;;12.57;73.60;102679.72;4960877;28;20066;-57
2022/05/06 04:03:22;;;;;;;26.33;11.23;;;;;;;12.57;73.57;102674.50;4971546;28;20547;-59
2022/05/06 04:05:55;;;;;;;28.90;12.20;;;;;;;12.52;73.82;102674.34;4965428;28;20615;-59
2022/05/06 04:08:20;;;;;;;36.45;12.15;;;;;;;12.49;74.17;102682.09;4978677;28;20504;-57
2022/05/06 04:10:46;;;;;;;32.60;12.60;;;;;;;12.46;74.24;102679.38;4983536;28;20081;-59
2022/05/06 04:13:11;;;;;;;33.85;12.30;;;;;;;12.49;74.12;102684.72;4964814;28;20045;-59
2022/05/06 04:15:38;;;;;;;38.80;10.70;;;;;;;12.31;73.38;102684.09;4965070;28;20713;-58
2022/05/06 04:18:04;;;;;;;31.13;11.15;;;;;;;12.25;74.01;102681.25;4976385;28;20042;-60
2022/05/06 04:23:32;;;;;;;24.17;9.87;;;;;;;12.16;74.30;102684.41;4964545;28;20048;-59
2022/05/06 04:26:03;;;;;;;37.30;8.77;;;;;;;12.06;73.77;102692.78;4969489;28;20050;-60
2022/05/06 04:28:29;;;;;;;39.30;9.32;;;;;;;12.10;73.63;102699.88;4978587;28;20325;-59
2022/05/06 04:30:59;;;;;;;125.53;11.00;;;;;;;12.00;73.61;102700.41;4975795;28;20601;-60
2022/05/06 04:33:25;;;;;;;100.05;10.90;;;;;;;11.88;74.50;102697.34;4976127;28;20041;-59
2022/05/06 04:35:50;;;;;;;118.57;11.07;;;;;;;11.86;74.84;102701.59;4968204;28;20511;-58
2022/05/06 04:38:16;;;;;;;47.90;10.60;;;;;;;11.88;74.85;102709.50;4970076;28;20509;-60
2022/05/06 04:40:42;;;;;;;30.50;10.93;;;;;;;11.95;75.22;102709.81;4977664;28;20472;-60
2022/05/06 04:43:08;;;;;;;44.28;10.98;;;;;;;12.00;75.08;102702.13;4971341;28;20056;-58
2022/05/06 04:45:40;;;;;;;30.00;10.25;;;;;;;12.00;74.98;102710.84;4970195;28;20053;-59
2022/05/06 04:48:07;;;;;;;24.85;10.27;;;;;;;12.17;74.44;102706.22;4971905;28;20121;-59
2022/05/06 04:50:33;;;;;;;19.42;9.70;;;;;;;12.22;74.32;102714.22;4969191;28;20053;-59
2022/05/06 04:52:59;;;;;;;30.48;10.73;;;;;;;12.20;74.39;102709.81;4962329;28;20451;-58
2022/05/06 04:55:24;;;;;;;31.73;11.20;;;;;;;12.15;74.32;102708.78;4972252;28;20048;-58
2022/05/06 04:57:50;;;;;;;25.08;10.20;;;;;;;12.25;74.45;102704.78;4971688;28;20053;-59
2022/05/06 05:00:15;;;;;;;37.38;10.38;;;;;;;12.24;73.89;102708.22;4971634;28;20653;-59
2022/05/06 05:02:41;;;;;;;24.40;10.35;;;;;;;12.21;73.84;102708.09;4990552;28;20545;-59
2022/05/06 05:05:06;;;;;;;51.00;10.98;;;;;;;12.26;74.14;102718.75;4955806;28;20050;-58
2022/05/06 05:07:32;;;;;;;28.15;10.15;;;;;;;12.33;74.41;102715.50;4980526;28;20189;-57
2022/05/06 05:09:57;;;;;;;27.95;8.85;;;;;;;12.37;74.07;102706.94;4976958;28;20374;-57
2022/05/06 05:12:24;;;;;;;22.85;9.20;;;;;;;12.40;74.07;102710.53;4969858;28;20041;-57
2022/05/06 05:14:51;;;;;;;19.70;8.90;;;;;;;12.60;73.60;102714.75;4975876;28;20073;-59
2022/05/06 05:17:16;;;;;;;50.78;9.10;;;;;;;12.52;73.51;102717.91;4972336;28;20441;-58
2022/05/06 05:19:42;;;;;;;27.58;9.32;;;;;;;12.57;73.23;102726.81;4971541;28;20484;-60
2022/05/06 05:22:07;;;;;;;25.02;9.32;;;;;;;12.70;73.31;102715.03;5001129;28;20037;-59
2022/05/06 05:24:33;;;;;;;33.38;9.93;;;;;;;12.73;72.59;102723.03;4972295;28;20042;-57
2022/05/06 05:26:58;;;;;;;20.48;9.23;;;;;;;12.83;72.24;102719.84;4963251;28;20049;-60
2022/05/06 05:29:24;;;;;;;38.72;9.73;;;;;;;12.72;72.29;102723.84;4961692;28;20328;-60
2022/05/06 05:31:50;;;;;;;83.97;10.38;;;;;;;12.51;72.33;102729.22;4970872;28;20113;-60
2022/05/06 05:34:16;;;;;;;54.13;10.23;;;;;;;12.52;73.06;102724.06;4974376;28;20078;-58
2022/05/06 05:36:41;;;;;;;26.08;10.60;;;;;;;12.58;73.21;102721.66;4998650;28;20113;-58
2022/05/06 05:39:07;;;;;;;28.70;10.27;;;;;;;12.72;72.97;102729.09;4971544;28;20082;-59
2022/05/06 05:41:33;;;;;;;31.83;9.30;;;;;;;12.66;73.16;102726.25;4970728;28;20057;-59
2022/05/06 05:49:26;;;;;;;16.27;8.77;;;;;;;13.27;70.73;102737.94;4944508;28;20349;-58
2022/05/06 05:51:52;;;;;;;17.58;8.38;;;;;;;13.19;70.15;102731.56;4965644;28;20054;-59
2022/05/06 05:54:17;;;;;;;15.82;8.15;;;;;;;13.24;70.52;102729.97;4973734;28;20066;-59
2022/05/06 05:56:43;;;;;;;16.38;8.55;;;;;;;13.22;70.18;102728.19;4977546;28;20489;-59
2022/05/06 05:59:08;;;;;;;17.23;8.48;;;;;;;13.27;70.34;102732.72;4958521;28;20447;-60
2022/05/06 06:01:33;;;;;;;15.25;8.32;;;;;;;13.15;69.87;102724.47;4974701;28;20045;-58
2022/05/06 06:03:59;;;;;;;15.50;9.13;;;;;;;13.30;70.33;102730.19;4965782;28;20137;-58
2022/05/06 06:06:24;;;;;;;18.20;10.05;;;;;;;13.14;70.35;102733.16;4966580;28;20054;-56
2022/05/06 06:08:50;;;;;;;16.88;9.70;;;;;;;13.16;70.88;102736.72;4976624;28;20438;-59
2022/05/06 06:11:17;;;;;;;18.40;10.43;;;;;;;13.40;70.80;102739.22;4956935;28;20047;-58
2022/05/06 06:13:43;;;;;;;20.55;10.98;;;;;;;13.67;70.32;102733.94;4979192;28;20046;-59
2022/05/06 06:16:08;;;;;;;21.13;11.65;;;;;;;13.85;69.78;102731.84;4976874;28;20041;-59
2022/05/06 06:18:34;;;;;;;20.65;11.55;;;;;;;14.20;69.65;102727.66;4966777;28;20049;-59
2022/05/06 06:20:59;;;;;;;19.95;11.73;;;;;;;14.33;67.73;102736.75;4960421;28;20304;-60
2022/05/06 06:23:24;;;;;;;21.45;12.98;;;;;;;14.40;66.88;102733.47;4967833;28;20049;-58
2022/05/06 06:25:50;;;;;;;22.73;13.38;;;;;;;14.58;66.70;102741.81;4970529;28;20205;-58
2022/05/06 06:28:16;;;;;;;24.75;13.68;;;;;;;14.50;66.90;102738.13;4973951;28;20368;-59
2022/05/06 06:30:42;;;;;;;24.30;13.75;;;;;;;14.54;67.02;102748.75;4973425;28;20057;-59
2022/05/06 06:33:08;;;;;;;25.33;14.27;;;;;;;14.80;66.82;102745.91;4960007;28;20069;-59
2022/05/06 06:35:33;;;;;;;27.17;15.60;;;;;;;14.85;66.85;102741.66;4976102;28;20046;-60
2022/05/06 06:38:00;;;;;;;28.05;15.57;;;;;;;15.15;65.34;102738.91;4977845;28;20363;-59
2022/05/06 06:40:26;;;;;;;28.08;15.90;;;;;;;15.20;65.68;102742.53;4973265;28;20096;-61
2022/05/06 06:42:51;;;;;;;28.10;16.48;;;;;;;15.09;65.72;102749.25;4974572;28;20188;-59
2022/05/06 06:45:31;;;;;;;32.22;17.58;;;;;;;14.95;65.20;102741.03;4962388;28;21350;-57
2022/05/06 06:47:59;;;;;;;31.67;17.20;;;;;;;15.12;65.67;102745.00;4974441;28;20042;-59
2022/05/06 06:50:26;;;;;;;31.20;17.42;;;;;;;15.54;63.98;102749.50;4960819;28;20086;-59
2022/05/06 06:52:53;;;;;;;32.35;17.90;;;;;;;15.68;63.60;102745.44;4989566;28;20092;-59
2022/05/06 06:55:19;;;;;;;29.02;16.50;;;;;;;16.46;61.46;102743.56;4965001;28;20380;-58
2022/05/06 06:57:44;;;;;;;32.35;17.77;;;;;;;17.13;59.56;102751.81;4985609;28;20041;-59
2022/05/06 07:00:11;;;;;;;28.58;16.92;;;;;;;17.66;57.37;102747.34;4973585;28;20122;-59
2022/05/06 07:02:37;;;;;;;26.70;16.13;;;;;;;18.26;54.98;102736.69;4970993;28;20049;-58
2022/05/06 07:05:03;;;;;;;25.80;16.27;;;;;;;18.71;54.65;102733.69;4963578;28;20050;-59
2022/05/06 07:12:59;;;;;;;23.63;14.63;;;;;;;20.73;48.71;102739.22;4975688;28;20631;-58
2022/05/06 07:15:25;;;;;;;25.50;15.00;;;;;;;21.50;46.24;102741.84;4976363;28;20052;-59
2022/05/06 07:17:50;;;;;;;23.50;14.90;;;;;;;21.31;47.28;102740.09;4974611;28;20041;-58
2022/05/06 07:20:16;;;;;;;23.10;14.20;;;;;;;20.32;48.76;102741.72;4954580;28;20064;-59
2022/05/06 07:22:41;;;;;;;23.30;14.48;;;;;;;19.87;50.31;102738.06;4971859;28;20339;-59
2022/05/06 07:25:08;;;;;;;24.02;14.45;;;;;;;20.10;49.16;102733.72;4963366;28;20365;-59
2022/05/06 07:27:36;;;;;;;21.42;13.90;;;;;;;20.38;48.73;102739.13;4989916;28;20057;-59
2022/05/06 07:30:03;;;;;;;21.30;14.25;;;;;;;20.06;49.84;102739.91;4974849;28;20824;-59
2022/05/06 07:32:28;;;;;;;21.75;13.75;;;;;;;21.00;48.25;102734.78;4976701;28;20133;-58
2022/05/06 07:34:57;;;;;;;21.35;12.70;;;;;;;21.43;45.74;102734.78;4967229;28;20049;-58
2022/05/06 07:37:22;;;;;;;19.45;12.30;;;;;;;21.53;47.10;102731.19;4970396;28;20451;-58
2022/05/06 07:39:47;;;;;;;19.83;13.07;;;;;;;21.48;45.78;102718.84;4971378;28;20068;-59
2022/05/06 07:42:13;;;;;;;20.00;12.32;;;;;;;21.85;44.67;102724.03;4971897;28;20030;-59
2022/05/06 07:44:39;;;;;;;17.67;11.90;;;;;;;21.50;45.73;102725.91;4969560;28;20113;-59
2022/05/06 07:47:04;;;;;;;16.90;11.25;;;;;;;22.72;44.05;102717.34;4970136;28;20077;-59
2022/05/06 07:49:29;;;;;;;18.95;11.60;;;;;;;22.35;44.81;102722.03;4975195;28;20057;-59
2022/05/06 07:51:55;;;;;;;17.92;11.52;;;;;;;22.16;44.06;102727.47;4969312;28;20054;-59
2022/05/06 07:54:20;;;;;;;18.45;11.45;;;;;;;23.00;42.38;102713.59;4975475;28;20068;-60
2022/05/06 07:56:45;;;;;;;16.33;11.43;;;;;;;21.97;43.35;102716.91;4980119;28;20042;-59
2022/05/06 07:59:11;;;;;;;17.38;11.18;;;;;;;22.50;43.00;102709.56;4956347;28;20038;-59
2022/05/06 08:04:35;;;;;;;18.00;11.70;;;;;;;22.45;43.55;102705.13;4974657;28;20049;-59
2022/05/06 08:07:01;;;;;;;20.15;12.63;;;;;;;22.33;46.36;102706.09;4957230;28;20045;-60
2022/05/06 08:09:27;;;;;;;19.35;12.98;;;;;;;22.49;45.40;102704.25;4974731;28;20076;-60
2022/05/06 08:11:52;;;;;;;21.55;13.18;;;;;;;22.53;43.99;102706.84;4975313;28;20939;-60
2022/05/06 08:14:25;;;;;;;19.25;13.75;;;;;;;22.32;44.08;102706.13;4968286;28;20125;-60
2022/05/06 08:16:51;;;;;;;18.20;13.25;;;;;;;22.17;43.99;102699.13;4974907;28;20609;-59
2022/05/06 08:19:18;;;;;;;20.02;13.95;;;;;;;21.89;45.57;102703.66;4965572;28;20492;-59
2022/05/06 08:21:43;;;;;;;21.27;14.30;;;;;;;21.50;46.88;102701.16;4943949;28;20050;-58
2022/05/06 08:24:09;;;;;;;22.10;14.93;;;;;;;21.26;49.06;102704.75;4971690;28;20049;-59
2022/05/06 08:26:34;;;;;;;22.30;14.77;;;;;;;20.94;48.02;102707.38;4975147;28;20564;-58
2022/05/06 08:29:00;;;;;;;23.10;15.25;;;;;;;20.63;48.88;102712.69;4972220;28;20041;-59
2022/05/06 08:31:27;;;;;;;22.73;14.35;;;;;;;20.65;49.07;102708.28;4973811;28;20038;-59
2022/05/06 08:33:54;;;;;;;20.52;13.77;;;;;;;20.70;49.19;102715.34;4974333;28;20042;-58
2022/05/06 08:36:19;;;;;;;23.38;14.95;;;;;;;20.32;49.49;102705.56;4977895;28;20132;-58
2022/05/06 08:38:45;;;;;;;21.70;14.35;;;;;;;20.83;48.99;102706.50;4972737;28;20034;-59
2022/05/06 08:41:12;;;;;;;20.73;14.38;;;;;;;21.16;48.21;102703.88;4980739;28;20041;-59
2022/05/06 08:43:38;;;;;;;21.83;14.00;;;;;;;20.67;49.06;102707.41;4967951;28;20034;-58
2022/05/06 08:51:33;;;;;;;19.55;13.05;;;;;;;21.03;48.14;102702.97;4970710;28;19927;-58
2022/05/06 08:53:59;;;;;;;17.35;12.13;;;;;;;21.50;46.85;102695.84;4974248;28;20049;-58
2022/05/06 08:56:24;;;;;;;18.17;12.27;;;;;;;21.66;45.97;102685.16;4971230;28;20583;-59
2022/05/06 08:58:49;;;;;;;19.55;13.25;;;;;;;21.61;46.17;102691.38;4973418;28;20428;-59
2022/05/06 09:01:17;;;;;;;17.83;12.82;;;;;;;21.48;48.25;102692.28;4971304;28;20038;-58
2022/05/06 09:03:48;;;;;;;18.55;12.75;;;;;;;21.80;45.75;102690.41;4974471;28;20600;-59
2022/05/06 09:06:23;;;;;;;16.40;11.55;;;;;;;22.11;46.28;102686.75;4977362;28;20053;-58
2022/05/06 09:08:51;;;;;;;17.10;11.77;;;;;;;22.41;44.00;102690.09;4970401;28;20057;-58
2022/05/06 09:12:40;;;;;;;16.40;11.48;;;;;;;22.49;42.30;102680.31;4961359;28;20403;-57
2022/05/06 09:14:04;;;;;;;18.92;11.77;;;;;;;22.48;44.42;102682.09;4965947;28;20866;-57
2022/05/06 09:16:41;;;;;;;17.73;11.90;;;;;;;22.56;42.96;102687.34;4971540;28;20200;-58
2022/05/06 09:19:17;;;;;;;17.70;12.20;;;;;;;22.63;42.85;102683.72;4969578;28;20088;-58
2022/05/06 09:22:13;;;;;;;16.83;12.50;;;;;;;22.17;44.92;102688.50;4968798;28;20626;-57
2022/05/06 09:24:50;;;;;;;16.83;11.90;;;;;;;21.99;45.38;102692.13;4977290;28;20431;-57
2022/05/06 09:27:17;;;;;;;17.38;10.98;;;;;;;22.30;44.16;102691.97;4969359;28;20467;-57
2022/05/06 09:29:50;;;;;;;13.20;10.68;;;;;;;22.74;45.17;102691.69;4974763;28;20103;-56
2022/05/06 09:32:23;;;;;;;14.57;10.60;;;;;;;22.72;43.22;102686.38;4961375;28;20790;-58
2022/05/06 09:34:49;;;;;;;14.68;9.13;;;;;;;23.03;42.23;102684.31;4974422;28;20038;-57
2022/05/06 09:37:35;;;;;;;12.73;9.52;;;;;;;23.37;41.09;102690.16;4966998;28;20547;-57
2022/05/06 09:40:04;;;;;;;15.00;10.18;;;;;;;23.27;39.51;102689.38;4970793;28;20046;-58
2022/05/06 09:42:29;;;;;;;13.73;9.45;;;;;;;23.32;41.63;102682.22;4979662;28;20601;-58
2022/05/06 09:44:55;;;;;;;11.13;9.02;;;;;;;23.40;41.59;102679.50;4971073;28;20042;-58
2022/05/06 09:47:21;;;;;;;15.90;9.40;;;;;;;23.19;41.26;102682.38;4969504;28;20573;-58
2022/05/06 09:49:49;;;;;;;14.75;9.48;;;;;;;23.02;41.57;102672.78;4976027;28;20081;-59
2022/05/06 09:52:14;;;;;;;12.55;7.90;;;;;;;23.33;41.42;102680.47;4977026;28;20260;-59
2022/05/06 09:54:42;;;;;;;12.10;9.45;;;;;;;23.53;39.13;102667.84;4977793;28;20042;-58
2022/05/06 09:57:11;;;;;;;13.23;9.40;;;;;;;23.45;38.68;102665.22;4951789;28;20044;-59
2022/05/06 09:59:37;;;;;;;11.68;8.30;;;;;;;23.65;39.27;102669.47;4971226;28;20105;-59
2022/05/06 10:02:07;;;;;;;11.27;8.63;;;;;;;23.61;40.46;102671.28;4968642;28;20053;-60
2022/05/06 10:04:34;;;;;;;13.38;9.05;;;;;;;23.34;39.62;102674.25;4971564;28;20124;-57
2022/05/06 10:07:00;;;;;;;14.10;9.73;;;;;;;23.22;39.98;102672.59;4970504;28;20617;-61
2022/05/06 10:09:27;;;;;;;11.38;8.82;;;;;;;23.24;41.04;102675.22;4974048;28;20061;-58
2022/05/06 10:11:55;;;;;;;14.88;9.00;;;;;;;23.51;40.76;102663.44;4979102;28;20218;-59
2022/05/06 10:14:22;;;;;;;9.80;7.70;;;;;;;23.79;39.38;102664.81;4979670;28;20048;-58
2022/05/06 10:16:48;;;;;;;13.23;8.18;;;;;;;24.06;39.40;102658.25;4981075;28;21285;-59
2022/05/06 10:19:34;;;;;;;11.32;8.57;;;;;;;24.11;39.20;102654.63;4975503;28;20745;-58
2022/05/06 10:21:59;;;;;;;10.82;8.80;;;;;;;23.86;39.87;102661.19;4966411;28;20037;-58
2022/05/06 10:24:38;;;;;;;11.55;8.23;;;;;;;24.16;39.18;102655.44;4972458;28;20049;-59
2022/05/06 10:27:21;;;;;;;14.93;9.15;;;;;;;24.30;36.68;102651.72;4969027;28;20042;-58
2022/05/06 10:32:54;;;;;;;11.05;8.32;;;;;;;24.60;36.80;102649.44;4965761;28;20096;-58
2022/05/06 10:35:36;;;;;;;12.57;9.10;;;;;;;24.08;37.57;102644.03;4964323;28;20544;-58
2022/05/06 10:38:15;;;;;;;12.90;9.05;;;;;;;24.01;37.71;102638.78;4979724;28;20153;-59
2022/05/06 10:40:48;;;;;;;13.30;8.90;;;;;;;24.29;38.38;102649.94;4982524;28;20354;-58
2022/05/06 10:43:48;;;;;;;12.82;9.40;;;;;;;24.52;37.77;102650.44;4966120;28;20040;-58
2022/05/06 10:46:40;;;;;;;12.20;8.38;;;;;;;24.97;37.28;102641.69;4971794;28;20100;-58
2022/05/06 10:49:39;;;;;;;11.00;8.10;;;;;;;25.13;36.43;102638.75;4964494;28;20054;-58
2022/05/06 10:52:13;;;;;;;10.95;7.53;;;;;;;25.50;35.52;102633.53;4963840;28;20042;-58
2022/05/06 10:54:43;;;;;;;11.63;7.68;;;;;;;25.52;34.94;102637.94;4971905;28;20731;-58
2022/05/06 10:57:09;;;;;;;10.35;8.15;;;;;;;25.54;35.76;102630.78;4975616;28;20042;-58
2022/05/06 11:00:02;;;;;;;12.93;8.70;;;;;;;25.57;35.99;102632.53;4975853;28;20512;-58
2022/05/06 11:02:33;;;;;;;11.90;9.20;;;;;;;25.10;36.08;102633.47;4972100;28;20185;-58
2022/05/06 11:05:05;;;;;;;13.45;8.20;;;;;;;25.25;36.15;102635.84;4963431;28;20548;-60
2022/05/06 11:07:33;;;;;;;8.20;6.72;;;;;;;25.68;34.24;102631.38;4975661;28;20042;-59
2022/05/06 11:09:59;;;;;;;11.68;8.23;;;;;;;25.66;35.40;102632.34;4976694;28;20449;-58
2022/05/06 11:12:29;;;;;;;11.35;8.77;;;;;;;25.52;33.26;102627.25;4968604;28;20038;-58
2022/05/06 11:14:58;;;;;;;8.93;7.10;;;;;;;25.41;34.45;102626.59;4971642;28;20038;-57
2022/05/06 11:17:27;;;;;;;13.35;7.63;;;;;;;25.55;35.75;102623.66;4968291;28;20479;-58
2022/05/06 11:19:52;;;;;;;12.85;8.25;;;;;;;25.40;36.09;102612.38;4976523;28;20517;-60
2022/05/06 11:22:20;;;;;;;11.45;6.50;;;;;;;25.78;34.95;102618.72;4968393;28;20046;-59
2022/05/06 11:24:46;;;;;;;10.15;7.90;;;;;;;25.91;34.10;102612.19;4973027;28;20046;-59
2022/05/06 11:27:19;;;;;;;10.40;6.95;;;;;;;26.03;34.11;102619.94;4972158;28;20646;-58
2022/05/06 11:29:48;;;;;;;9.48;6.82;;;;;;;25.90;33.40;102612.22;4972907;28;20057;-58
2022/05/06 11:32:14;;;;;;;9.48;7.63;;;;;;;25.76;32.86;102608.06;4971825;28;20444;-58
2022/05/06 11:34:53;;;;;;;7.65;6.07;;;;;;;25.92;34.52;102605.06;4969496;28;20111;-59
2022/05/06 11:37:32;;;;;;;10.45;6.88;;;;;;;26.10;35.43;102615.31;4961205;28;21727;-59
2022/05/06 11:43:20;;;;;;;9.57;7.28;;;;;;;25.81;33.56;102608.84;4978924;28;20557;-59
2022/05/06 11:48:45;;;;;;;9.93;7.10;;;;;;;25.76;33.83;102609.84;4961848;28;21025;-59
2022/05/06 11:51:14;;;;;;;10.15;7.68;;;;;;;25.82;34.52;102604.38;4965930;28;20074;-60
2022/05/06 11:53:41;;;;;;;10.10;7.80;;;;;;;25.73;34.05;102600.13;4960799;28;20037;-57
2022/05/06 11:56:08;;;;;;;11.40;7.68;;;;;;;25.77;34.32;102607.16;4976125;28;20041;-56